Time;durP1;ratioP1;P1;durP2;ratioP2;P2;SDS_P1;SDS_P2;PMS_P1;PMS_P2;Temp;Humidity;BMP_temperature;BMP_pressure;BME280_temperature;BME280_humidity;BME280_pressure;Samples;Min_cycle;Max_cycle;Signal;HPM_P1;HPM_P2
2023/01/04 00:01:01;;;;;;;94.85;40.20;;;;;;;5.36;74.19;100586.50;3121829;28;20187;-68
2023/01/04 00:02:34;;;;;;;96.10;40.83;;;;;;;5.36;74.16;100593.41;3128765;28;20049;-68
2023/01/04 00:04:06;;;;;;;108.78;41.15;;;;;;;5.33;74.16;100596.03;3131655;28;20067;-68
2023/01/04 00:05:38;;;;;;;93.93;38.22;;;;;;;5.28;74.36;100593.47;3131960;28;20163;-68
2023/01/04 00:07:10;;;;;;;89.90;39.45;;;;;;;5.29;74.17;100587.44;3131727;28;20045;-68
2023/01/04 00:08:41;;;;;;;96.50;39.50;;;;;;;5.30;74.30;100591.75;3126984;28;20049;-68
2023/01/04 00:10:14;;;;;;;95.45;40.63;;;;;;;5.26;74.20;100595.22;3131810;28;20048;-68
2023/01/04 00:11:46;;;;;;;90.70;42.37;;;;;;;5.29;74.28;100599.50;3126327;28;20045;-68
2023/01/04 00:13:18;;;;;;;96.57;41.03;;;;;;;5.22;74.27;100589.22;3122634;28;20479;-68
2023/01/04 00:14:49;;;;;;;100.38;40.17;;;;;;;5.27;74.23;100606.44;3119844;28;20139;-69
2023/01/04 00:16:23;;;;;;;87.57;40.30;;;;;;;5.25;74.31;100611.59;3124216;28;20049;-68
2023/01/04 00:17:56;;;;;;;;;;;;;;;5.15;74.26;100597.94;3131860;28;20068;-69
2023/01/04 00:19:28;;;;;;;97.20;37.85;;;;;;;5.11;74.49;100603.97;3131356;28;20313;-69
2023/01/04 00:21:06;;;;;;;95.28;39.53;;;;;;;5.15;74.37;100603.09;3131491;28;20056;-69
2023/01/04 00:22:38;;;;;;;94.15;38.65;;;;;;;5.11;74.47;100600.53;3132054;28;20045;-68
2023/01/04 00:24:14;;;;;;;94.57;40.78;;;;;;;5.13;74.61;100606.56;3131847;28;20122;-69
2023/01/04 00:25:46;;;;;;;95.30;38.63;;;;;;;5.11;74.55;100600.53;3131790;28;20478;-69
2023/01/04 00:27:17;;;;;;;101.63;40.40;;;;;;;5.09;74.54;100610.91;3130573;28;20049;-68
2023/01/04 00:28:53;;;;;;;95.90;40.88;;;;;;;4.95;74.58;100586.94;3127422;28;20053;-69
2023/01/04 00:30:25;;;;;;;100.63;40.40;;;;;;;5.06;74.62;100607.47;3130846;28;20057;-69
2023/01/04 00:31:57;;;;;;;102.75;41.13;;;;;;;5.05;74.52;100609.19;3131636;28;20130;-69
2023/01/04 00:33:29;;;;;;;99.43;40.83;;;;;;;5.04;74.50;100619.56;3123088;28;20061;-68
2023/01/04 00:35:01;;;;;;;100.88;41.35;;;;;;;4.98;74.53;100620.47;3128575;28;20060;-69
2023/01/04 00:36:34;;;;;;;102.80;39.90;;;;;;;4.53;74.50;100545.19;3128362;28;20126;-69
2023/01/04 00:38:06;;;;;;;89.82;39.95;;;;;;;4.93;74.60;100617.06;3127192;28;20037;-69
2023/01/04 00:39:38;;;;;;;108.57;39.85;;;;;;;4.92;74.51;100617.94;3131854;28;20045;-68
2023/01/04 00:41:10;;;;;;;98.00;41.05;;;;;;;4.87;74.48;100612.81;3131665;28;20076;-68
2023/01/04 00:42:42;;;;;;;99.25;40.28;;;;;;;4.90;74.55;100617.09;3125040;28;20446;-69
2023/01/04 00:44:15;;;;;;;96.50;41.55;;;;;;;4.85;74.73;100624.88;3127198;28;20053;-69
2023/01/04 00:45:46;;;;;;;95.07;38.75;;;;;;;4.83;74.59;100605.13;3131496;28;20045;-69
2023/01/04 00:47:17;;;;;;;86.15;39.17;;;;;;;4.88;74.80;100616.25;3131445;28;20145;-68
2023/01/04 00:48:51;;;;;;;89.53;41.00;;;;;;;4.87;74.90;100617.97;3131517;28;20621;-69
2023/01/04 00:50:22;;;;;;;100.60;41.10;;;;;;;4.81;74.88;100612.88;3131754;28;20538;-68
2023/01/04 00:51:54;;;;;;;95.53;39.92;;;;;;;4.86;74.88;100620.56;3131298;28;20052;-68
2023/01/04 00:53:26;;;;;;;98.55;40.15;;;;;;;4.84;74.96;100623.16;3131726;28;20056;-68
2023/01/04 00:54:58;;;;;;;91.63;38.40;;;;;;;4.79;74.88;100612.00;3131766;28;20049;-69
2023/01/04 00:56:30;;;;;;;96.50;39.20;;;;;;;4.78;74.88;100616.31;3121471;28;20046;-69
2023/01/04 00:58:02;;;;;;;90.82;37.83;;;;;;;4.79;74.88;100618.06;3128163;28;20695;-68
2023/01/04 00:59:34;;;;;;;84.95;36.53;;;;;;;4.77;74.95;100619.78;3130262;28;20126;-68
2023/01/04 01:01:05;;;;;;;77.82;36.63;;;;;;;4.71;74.84;100617.25;3125775;28;20045;-68
2023/01/04 01:02:37;;;;;;;96.38;37.05;;;;;;;4.31;75.06;100555.66;3128899;28;20071;-69
2023/01/04 01:04:12;;;;;;;82.65;35.22;;;;;;;4.72;74.89;100628.44;3131346;28;20049;-68
2023/01/04 01:05:44;;;;;;;82.95;36.08;;;;;;;4.66;74.91;100623.31;3131131;28;20053;-69
2023/01/04 01:07:16;;;;;;;74.88;35.00;;;;;;;4.63;75.04;100626.78;3131342;28;20505;-69
2023/01/04 01:08:48;;;;;;;88.00;36.28;;;;;;;4.62;75.03;100627.66;3124894;28;20057;-68
2023/01/04 01:10:20;;;;;;;87.60;35.58;;;;;;;4.55;75.05;100619.09;3125551;28;20049;-69
2023/01/04 01:11:53;;;;;;;79.93;34.63;;;;;;;4.60;74.98;100629.38;3131478;28;20494;-68
2023/01/04 01:13:25;;;;;;;85.25;34.15;;;;;;;4.60;75.01;100637.13;3126841;28;20053;-69
2023/01/04 01:14:56;;;;;;;75.72;33.40;;;;;;;4.55;75.01;100641.44;3131721;28;20049;-69
2023/01/04 01:16:28;;;;;;;80.50;35.47;;;;;;;4.53;75.16;100635.47;3131649;28;20053;-69
2023/01/04 01:18:00;;;;;;;88.13;37.28;;;;;;;4.46;75.16;100626.03;3131255;28;20061;-69
2023/01/04 01:19:33;;;;;;;81.53;33.08;;;;;;;4.43;75.05;100629.47;3131233;28;20506;-69
2023/01/04 01:21:05;;;;;;;79.57;35.55;;;;;;;4.42;75.13;100622.63;3131467;28;20064;-69
2023/01/04 01:22:36;;;;;;;81.93;34.60;;;;;;;4.41;75.32;100630.34;3131595;28;20041;-68
2023/01/04 01:24:10;;;;;;;84.45;35.47;;;;;;;4.35;75.25;100623.53;3125601;28;20049;-69
2023/01/04 01:25:42;;;;;;;74.60;32.60;;;;;;;4.36;75.37;100626.97;3131380;28;20056;-68
2023/01/04 01:27:14;;;;;;;82.43;35.67;;;;;;;4.29;75.13;100624.44;3128555;28;20057;-69
2023/01/04 01:28:47;;;;;;;78.45;34.97;;;;;;;4.31;75.36;100627.84;3130381;28;20322;-68
2023/01/04 01:30:19;;;;;;;83.35;34.05;;;;;;;4.26;75.30;100621.00;3131448;28;20128;-69
2023/01/04 01:31:51;;;;;;;82.22;34.22;;;;;;;4.18;75.57;100621.06;3130952;28;20061;-69
2023/01/04 01:33:22;;;;;;;80.63;34.22;;;;;;;4.16;75.53;100615.03;3124916;28;20049;-69
2023/01/04 01:34:56;;;;;;;81.38;33.20;;;;;;;4.21;75.40;100620.19;3128853;28;20080;-68
2023/01/04 01:36:28;;;;;;;76.38;31.75;;;;;;;4.19;75.43;100629.66;3133334;28;20073;-69
2023/01/04 01:38:00;;;;;;;73.25;33.17;;;;;;;4.17;75.51;100615.91;3129338;28;20111;-68
2023/01/04 01:39:32;;;;;;;76.22;34.00;;;;;;;4.05;75.59;100607.41;3127297;28;20056;-69
2023/01/04 01:41:04;;;;;;;81.22;33.58;;;;;;;4.13;75.48;100622.81;3130417;28;20163;-68
2023/01/04 01:42:36;;;;;;;79.57;35.30;;;;;;;4.12;75.70;100626.25;3125684;28;20053;-69
2023/01/04 01:44:41;;;;;;;78.82;33.40;;;;;;;4.02;75.61;100610.00;3132986;28;20097;-69
2023/01/04 01:46:13;;;;;;;;;;;;;;;3.99;75.65;100635.75;3133641;28;20118;-69
2023/01/04 01:47:47;;;;;;;78.93;34.55;;;;;;;3.97;76.02;100631.50;3133317;28;20275;-68
2023/01/04 01:49:21;;;;;;;;;;;;;;;3.90;75.83;100624.63;3133657;28;20049;-68
2023/01/04 01:50:59;;;;;;;68.35;31.45;;;;;;;3.90;75.95;100615.19;3133390;28;19921;-69
2023/01/04 01:52:35;;;;;;;77.78;32.75;;;;;;;3.90;76.00;100624.63;3132093;28;20052;-68
2023/01/04 01:54:13;;;;;;;74.50;33.95;;;;;;;3.87;76.05;100625.50;3133614;28;20105;-68
2023/01/04 01:55:49;;;;;;;75.13;33.38;;;;;;;3.80;76.04;100626.41;3133141;28;20048;-69
2023/01/04 01:57:23;;;;;;;91.18;34.60;;;;;;;3.81;76.10;100621.22;3129246;28;20041;-69
2023/01/04 01:58:58;;;;;;;74.07;33.03;;;;;;;3.83;76.26;100622.09;3133541;28;20489;-68
2023/01/04 02:00:31;;;;;;;76.97;33.20;;;;;;;3.83;76.31;100622.09;3132747;28;20143;-68
2023/01/04 02:02:03;;;;;;;82.07;34.70;;;;;;;3.44;76.33;100556.16;3126174;28;20045;-69
2023/01/04 02:03:38;;;;;;;82.25;33.92;;;;;;;3.01;76.27;100493.66;3133140;28;20057;-68
2023/01/04 02:05:10;;;;;;;79.07;32.50;;;;;;;3.82;76.36;100620.38;3133065;28;20106;-68
2023/01/04 02:06:47;;;;;;;74.72;32.40;;;;;;;3.81;76.29;100616.06;3128193;28;20056;-68
2023/01/04 02:08:21;;;;;;;83.28;34.22;;;;;;;3.79;76.25;100607.53;3129722;28;20103;-68
2023/01/04 02:09:53;;;;;;;72.07;32.65;;;;;;;3.82;76.42;100612.66;3133016;28;20041;-69
2023/01/04 02:11:26;;;;;;;79.97;33.42;;;;;;;3.05;76.36;100485.09;3129021;28;20491;-68
2023/01/04 02:13:03;;;;;;;66.13;30.67;;;;;;;3.81;76.41;100613.50;3133159;28;20438;-70
2023/01/04 02:14:33;;;;;;;77.30;32.50;;;;;;;3.80;76.43;100613.53;3133056;28;20084;-68
2023/01/04 02:16:14;;;;;;;66.40;32.03;;;;;;;3.82;76.41;100615.25;3133134;28;20132;-69
2023/01/04 02:17:54;;;;;;;76.30;32.42;;;;;;;3.82;76.55;100612.66;3128424;28;20046;-67
2023/01/04 02:19:42;;;;;;;69.80;31.48;;;;;;;3.83;76.39;100621.25;3132803;28;20550;-69
2023/01/04 02:21:22;;;;;;;75.72;32.85;;;;;;;3.79;76.49;100615.25;3122752;28;20111;-68
2023/01/04 02:23:30;;;;;;;77.15;31.75;;;;;;;3.81;76.40;100613.50;3133080;28;20115;-68
2023/01/04 02:25:37;;;;;;;68.53;29.63;;;;;;;3.80;76.42;100609.22;3133297;28;20045;-69
2023/01/04 02:27:49;;;;;;;72.65;32.72;;;;;;;3.76;76.36;100610.13;3129355;28;20454;-69
2023/01/04 02:30:01;;;;;;;73.55;29.63;;;;;;;3.75;76.51;100605.81;3129209;28;20049;-69
2023/01/04 02:31:39;;;;;;;66.07;29.15;;;;;;;3.73;76.62;100610.13;3133279;28;20053;-68
2023/01/04 02:33:26;;;;;;;62.63;28.98;;;;;;;3.73;76.62;100607.56;3126412;28;20077;-67
2023/01/04 02:35:04;;;;;;;59.63;27.95;;;;;;;3.73;76.58;100604.97;3128421;28;20106;-68
2023/01/04 02:36:48;;;;;;;59.20;27.67;;;;;;;3.66;76.75;100600.69;3132938;28;20076;-67
2023/01/04 02:38:25;;;;;;;58.70;27.90;;;;;;;3.73;76.74;100609.28;3132768;28;20430;-68
2023/01/04 02:40:03;;;;;;;55.55;26.40;;;;;;;3.74;76.82;100614.41;3132784;28;20056;-67
2023/01/04 02:41:43;;;;;;;60.72;27.20;;;;;;;3.74;76.70;100610.97;3129294;28;20541;-69
2023/01/04 02:45:15;;;;;;;56.88;26.67;;;;;;;3.70;76.82;100602.41;3132852;28;20514;-67
2023/01/04 02:46:53;;;;;;;59.05;27.10;;;;;;;3.75;76.77;100613.53;3132620;28;20440;-68
2023/01/04 02:50:32;;;;;;;55.70;26.73;;;;;;;3.72;76.87;100613.53;3108632;28;20046;-68
2023/01/04 02:52:04;;;;;;;52.38;26.60;;;;;;;3.70;77.13;100609.25;3111979;28;20383;-68
2023/01/04 02:53:38;;;;;;;67.00;26.70;;;;;;;3.64;77.25;100602.44;3132401;28;20048;-68
2023/01/04 02:55:10;;;;;;;57.58;26.67;;;;;;;3.62;77.26;100606.72;3128064;28;20068;-68
2023/01/04 02:57:00;;;;;;;60.40;26.70;;;;;;;3.65;77.17;100602.41;3133083;28;20085;-68
2023/01/04 02:58:48;;;;;;;57.75;25.45;;;;;;;3.58;77.07;100599.84;3111166;28;20085;-68
2023/01/04 03:06:13;;;;;;;63.30;25.88;;;;;;;3.58;76.78;100615.31;3132443;28;20067;-68
2023/01/04 03:06:46;;;;;;;58.20;26.08;;;;;;;3.40;76.39;100616.22;3122083;28;20159;-69
2023/01/04 03:08:27;;;;;;;55.95;27.35;;;;;;;3.35;76.45;100625.72;3132336;28;20744;-68
2023/01/04 03:10:12;;;;;;;64.53;26.73;;;;;;;3.34;76.67;100624.84;3128402;28;20081;-68
2023/01/04 03:13:40;;;;;;;59.60;26.80;;;;;;;3.24;77.02;100630.00;3132560;28;20072;-68
2023/01/04 03:15:17;;;;;;;62.40;27.52;;;;;;;3.25;77.10;100634.28;3132797;28;20136;-68
2023/01/04 03:16:50;;;;;;;64.05;25.90;;;;;;;2.95;77.10;100593.16;3130943;28;20052;-68
2023/01/04 03:18:27;;;;;;;54.55;24.13;;;;;;;3.27;77.14;100648.03;3132196;28;20075;-68
2023/01/04 03:19:59;;;;;;;62.08;25.17;;;;;;;3.24;77.17;100648.88;3132311;28;20104;-68
2023/01/04 03:21:33;;;;;;;52.67;23.92;;;;;;;2.95;76.95;100598.31;3132189;28;20049;-68
2023/01/04 03:36:25;;;;;;;49.65;22.90;;;;;;;3.19;77.47;100650.59;3132197;28;20633;-68
2023/01/04 03:49:47;;;;;;;56.42;25.10;;;;;;;3.18;77.62;100648.91;3131667;28;20052;-68
2023/01/04 03:51:23;;;;;;;57.22;24.88;;;;;;;3.19;77.76;100658.31;3131795;28;20129;-68
2023/01/04 03:52:58;;;;;;;58.00;24.52;;;;;;;3.21;77.76;100655.75;3131998;28;20068;-68
2023/01/04 03:54:33;;;;;;;56.20;25.40;;;;;;;3.18;77.92;100659.19;3127916;28;20632;-68
2023/01/04 03:56:08;;;;;;;58.95;25.17;;;;;;;3.18;77.92;100659.19;3131434;28;20044;-67
2023/01/04 03:57:41;;;;;;;80.65;35.47;;;;;;;3.16;78.00;100666.91;3131803;28;20053;-68
2023/01/04 03:59:14;;;;;;;67.85;29.75;;;;;;;3.13;78.14;100656.59;3130164;28;20041;-68
2023/01/04 04:00:45;;;;;;;59.53;26.03;;;;;;;2.52;78.18;100553.78;3128881;28;20066;-68
2023/01/04 04:02:25;;;;;;;57.40;25.05;;;;;;;3.13;78.43;100646.31;3125087;28;20040;-68
2023/01/04 04:09:26;;;;;;;55.42;25.20;;;;;;;3.05;78.48;100649.78;3130471;28;20132;-68
2023/01/04 04:11:29;;;;;;;60.60;25.38;;;;;;;3.05;78.46;100652.34;3131840;28;20449;-67
2023/01/04 04:12:53;;;;;;;59.92;24.42;;;;;;;3.05;78.48;100660.06;3126063;28;20524;-67
2023/01/04 04:14:24;;;;;;;56.75;24.80;;;;;;;3.06;78.46;100659.22;3131482;28;20150;-68
2023/01/04 04:15:56;;;;;;;63.78;25.88;;;;;;;3.01;78.64;100659.19;3131879;28;20124;-68
2023/01/04 04:17:28;;;;;;;52.75;24.55;;;;;;;2.99;78.50;100654.91;3131751;28;20167;-68
2023/01/04 04:19:00;;;;;;;54.22;24.20;;;;;;;2.93;78.70;100656.66;3131653;28;20144;-68
2023/01/04 04:20:31;;;;;;;53.45;25.02;;;;;;;2.96;78.64;100651.50;3131719;28;20550;-68
2023/01/04 04:22:04;;;;;;;59.15;26.58;;;;;;;2.93;78.59;100651.50;3124520;28;20049;-68
2023/01/04 04:23:35;;;;;;;53.80;25.85;;;;;;;2.96;78.64;100656.66;3127351;28;20386;-68
2023/01/04 04:25:07;;;;;;;59.20;26.15;;;;;;;2.88;78.61;100644.63;3131460;28;20063;-68
2023/01/04 04:26:39;;;;;;;58.92;24.52;;;;;;;2.94;78.57;100647.22;3120232;28;20049;-69
2023/01/04 04:28:11;;;;;;;56.92;25.67;;;;;;;2.96;78.48;100659.22;3125533;28;20052;-69
2023/01/04 04:29:42;;;;;;;56.67;24.77;;;;;;;2.90;78.34;100651.50;3131339;28;20053;-69
2023/01/04 04:31:14;;;;;;;60.92;25.25;;;;;;;2.94;78.38;100666.06;3131677;28;20049;-69
2023/01/04 04:32:46;;;;;;;58.15;26.25;;;;;;;2.94;78.17;100666.06;3128217;28;20356;-70
2023/01/04 04:34:18;;;;;;;53.65;23.95;;;;;;;2.92;78.13;100669.50;3122142;28;20103;-69
2023/01/04 04:35:51;;;;;;;53.33;24.40;;;;;;;2.90;78.10;100669.50;3131576;28;20052;-69
2023/01/04 04:37:25;;;;;;;51.97;24.60;;;;;;;2.76;77.96;100650.63;3127235;28;20056;-69
2023/01/04 04:38:57;;;;;;;54.90;24.88;;;;;;;2.88;78.00;100680.66;3131606;28;20049;-69
2023/01/04 04:42:18;;;;;;;55.17;25.77;;;;;;;2.82;78.09;100686.66;3131153;28;20525;-69
2023/01/04 04:43:49;;;;;;;52.95;23.38;;;;;;;2.78;78.07;100666.94;3131462;28;20049;-68
2023/01/04 04:45:21;;;;;;;55.50;24.88;;;;;;;2.82;78.03;100683.22;3131096;28;20071;-69
2023/01/04 04:46:53;;;;;;;58.25;24.80;;;;;;;2.62;77.81;100640.34;3131971;28;20057;-68
2023/01/04 04:48:24;;;;;;;51.75;25.05;;;;;;;2.78;78.03;100674.66;3131240;28;20533;-68
2023/01/04 04:49:55;;;;;;;51.05;24.63;;;;;;;2.67;77.84;100653.22;3131122;28;20190;-68
2023/01/04 04:51:28;;;;;;;59.33;24.73;;;;;;;2.77;77.96;100672.06;3129334;28;20064;-69
2023/01/04 04:53:01;;;;;;;63.05;27.17;;;;;;;2.77;77.91;100674.63;3129011;28;20053;-69
2023/01/04 04:54:33;;;;;;;54.28;23.77;;;;;;;2.71;77.75;100673.78;3129814;28;20045;-69
2023/01/04 04:56:05;;;;;;;53.15;25.02;;;;;;;2.79;77.62;100681.50;3127103;28;20065;-69
2023/01/04 04:57:38;;;;;;;52.53;25.30;;;;;;;2.78;77.58;100681.50;3122660;28;20045;-69
2023/01/04 04:59:10;;;;;;;50.58;24.55;;;;;;;2.77;77.77;100687.50;3126109;28;20053;-69
2023/01/04 05:00:40;;;;;;;61.17;25.25;;;;;;;2.43;77.48;100633.47;3128899;28;20512;-68
2023/01/04 05:02:12;;;;;;;59.45;25.50;;;;;;;2.77;77.63;100687.50;3124424;28;20123;-68
2023/01/04 05:03:43;;;;;;;57.78;26.27;;;;;;;2.65;77.50;100672.91;3131199;28;20135;-69
2023/01/04 05:05:15;;;;;;;56.05;26.70;;;;;;;2.67;77.53;100684.06;3131137;28;20049;-69
2023/01/04 05:06:49;;;;;;;58.75;25.45;;;;;;;2.77;77.61;100702.94;3126570;28;20056;-69
2023/01/04 05:08:22;;;;;;;61.20;25.52;;;;;;;2.76;77.54;100707.22;3132932;28;20052;-69
2023/01/04 05:09:53;;;;;;;57.28;25.42;;;;;;;2.74;77.71;100708.94;3123837;28;20100;-69
2023/01/04 05:13:12;;;;;;;50.65;23.67;;;;;;;2.70;77.56;100702.06;3132408;28;20057;-68
2023/01/04 05:14:42;;;;;;;56.83;25.92;;;;;;;2.69;77.58;100703.78;3133523;28;20049;-67
2023/01/04 05:16:14;;;;;;;62.47;27.45;;;;;;;2.68;77.42;100707.19;3133648;28;20056;-68
2023/01/04 05:17:45;;;;;;;56.75;26.20;;;;;;;2.65;77.57;100714.91;3127131;28;20107;-65
2023/01/04 05:19:17;;;;;;;65.72;26.83;;;;;;;2.61;77.55;100709.78;3129975;28;20409;-64
2023/01/04 05:20:49;;;;;;;65.43;26.20;;;;;;;2.60;77.81;100719.19;3130888;28;20076;-64
2023/01/04 05:22:20;;;;;;;61.63;25.88;;;;;;;2.53;77.68;100703.75;3132326;28;20048;-66
2023/01/04 05:23:53;;;;;;;58.67;27.17;;;;;;;2.56;77.90;100719.19;3132818;28;20041;-67
2023/01/04 05:25:24;;;;;;;56.15;26.23;;;;;;;2.53;77.95;100732.03;3132784;28;20068;-64
2023/01/04 05:26:56;;;;;;;61.88;27.55;;;;;;;2.53;77.88;100727.75;3132595;28;20048;-63
2023/01/04 05:28:28;;;;;;;60.70;27.05;;;;;;;2.52;78.08;100733.75;3133754;28;20075;-63
2023/01/04 05:31:48;;;;;;;82.65;37.92;;;;;;;2.47;78.14;100733.72;3133516;28;20490;-67
2023/01/04 05:33:22;;;;;;;52.40;24.75;;;;;;;2.46;78.19;100736.31;3125769;28;20051;-64
2023/01/04 05:34:53;;;;;;;56.35;24.38;;;;;;;2.42;78.13;100722.56;3130184;28;20170;-66
2023/01/04 05:36:24;;;;;;;55.45;24.20;;;;;;;2.49;77.95;100731.19;3129707;28;20070;-68
2023/01/04 05:37:56;;;;;;;58.80;22.05;;;;;;;2.50;77.86;100733.72;3126635;28;20049;-69
2023/01/04 05:39:30;;;;;;;72.82;30.73;;;;;;;2.48;77.93;100732.91;3133604;28;20106;-68
2023/01/04 05:41:01;;;;;;;230.68;99.47;;;;;;;2.50;77.86;100733.72;3134142;28;20056;-69
2023/01/04 05:42:32;;;;;;;273.30;112.20;;;;;;;2.52;77.86;100738.03;3133489;28;20056;-72
2023/01/04 05:44:04;;;;;;;120.90;52.95;;;;;;;2.47;77.85;100723.44;3133388;28;20415;-70
2023/01/04 05:45:36;;;;;;;132.30;59.33;;;;;;;2.53;78.06;100729.47;3133503;28;20147;-69
2023/01/04 05:47:07;;;;;;;52.92;27.45;;;;;;;2.60;78.04;100731.19;3133361;28;20092;-70
2023/01/04 05:48:39;;;;;;;50.42;24.02;;;;;;;2.57;77.92;100732.03;3133316;28;20218;-69
2023/01/04 05:50:11;;;;;;;50.40;23.40;;;;;;;2.59;77.92;100734.63;3130690;28;20056;-73
2023/01/04 05:51:43;;;;;;;53.75;24.60;;;;;;;2.61;77.92;100738.06;3127502;28;20480;-71
2023/01/04 05:53:17;;;;;;;50.25;23.50;;;;;;;2.53;77.78;100743.19;3132885;28;20053;-67
2023/01/04 05:54:49;;;;;;;52.05;24.88;;;;;;;2.42;77.71;100714.84;3132686;28;20138;-74
2023/01/04 05:56:21;;;;;;;56.80;25.33;;;;;;;2.59;77.55;100742.34;3132525;28;20049;-68
2023/01/04 05:57:54;;;;;;;60.83;25.25;;;;;;;2.60;77.49;100741.47;3133614;28;20098;-66
2023/01/04 05:59:25;;;;;;;73.05;26.67;;;;;;;2.59;77.42;100744.91;3133283;28;20110;-65
2023/01/04 06:00:57;;;;;;;62.75;26.35;;;;;;;2.59;77.66;100740.63;3129135;28;20527;-67
2023/01/04 06:02:31;;;;;;;63.08;27.98;;;;;;;2.61;77.60;100746.63;3133249;28;20073;-64
2023/01/04 06:04:01;;;;;;;62.83;26.05;;;;;;;2.62;77.53;100757.78;3122218;28;20064;-65
2023/01/04 06:05:33;;;;;;;60.38;25.77;;;;;;;2.63;77.61;100744.03;3124636;28;20122;-64
2023/01/04 06:07:04;;;;;;;52.08;25.38;;;;;;;2.65;77.66;100747.50;3130849;28;20075;-65
2023/01/04 06:08:36;;;;;;;58.95;26.98;;;;;;;2.65;77.48;100750.06;3127390;28;20057;-66
2023/01/04 06:10:12;;;;;;;66.68;27.67;;;;;;;2.67;77.59;100756.94;3125756;28;20049;-64
2023/01/04 06:11:43;;;;;;;71.65;27.30;;;;;;;2.66;77.37;100757.81;3133009;28;20079;-65
2023/01/04 06:13:15;;;;;;;65.28;27.55;;;;;;;2.68;76.99;100755.22;3133310;28;20126;-66
2023/01/04 06:14:46;;;;;;;61.97;26.33;;;;;;;2.68;76.88;100768.06;3130781;28;20121;-65
2023/01/04 06:16:18;;;;;;;63.72;25.92;;;;;;;2.68;76.86;100752.63;3130673;28;20056;-66
2023/01/04 06:17:50;;;;;;;66.53;28.52;;;;;;;2.73;76.90;100756.09;3131103;28;20044;-64
2023/01/04 06:19:21;;;;;;;66.53;28.55;;;;;;;2.80;76.95;100762.94;3124246;28;20431;-62
2023/01/04 06:20:53;;;;;;;67.22;28.90;;;;;;;2.88;76.93;100766.41;3133374;28;20208;-63
2023/01/04 06:22:26;;;;;;;82.70;30.92;;;;;;;2.96;77.03;100762.13;3132851;28;20124;-63
2023/01/04 06:23:58;;;;;;;;;;;;;;;3.00;76.83;100757.84;3133319;28;20148;-63
2023/01/04 06:25:31;;;;;;;74.03;30.48;;;;;;;3.09;76.97;100775.88;3133041;28;19925;-63
2023/01/04 06:27:03;;;;;;;67.07;29.80;;;;;;;3.19;76.78;100774.16;3132853;28;20056;-65
2023/01/04 06:28:35;;;;;;;78.80;30.52;;;;;;;3.27;76.71;100775.03;3132929;28;20052;-65
2023/01/04 06:30:08;;;;;;;73.55;29.52;;;;;;;3.31;76.52;100773.28;3132967;28;20052;-65
2023/01/04 06:31:40;;;;;;;82.45;29.45;;;;;;;3.44;76.52;100784.47;3133078;28;20053;-64
2023/01/04 06:33:12;;;;;;;71.10;31.15;;;;;;;3.48;76.37;100779.31;3124263;28;20065;-64
2023/01/04 06:34:44;;;;;;;66.72;29.75;;;;;;;3.55;76.19;100787.88;3120667;28;20045;-66
2023/01/04 06:36:16;;;;;;;71.05;31.15;;;;;;;3.62;76.19;100785.31;3132687;28;20048;-67
2023/01/04 06:37:47;;;;;;;68.75;31.25;;;;;;;3.63;75.93;100771.56;3132572;28;20442;-66
2023/01/04 06:39:19;;;;;;;69.85;30.00;;;;;;;3.80;75.73;100789.56;3133085;28;20064;-64
2023/01/04 06:40:53;;;;;;;69.13;29.88;;;;;;;3.88;75.63;100792.16;3132865;28;20415;-63
2023/01/04 06:44:14;;;;;;;69.93;30.38;;;;;;;4.05;75.16;100794.66;3132255;28;20045;-63
2023/01/04 06:45:46;;;;;;;74.07;32.30;;;;;;;4.14;75.12;100794.66;3132754;28;20052;-64
2023/01/04 06:47:18;;;;;;;74.15;31.85;;;;;;;4.19;75.10;100777.44;3132078;28;20060;-68
2023/01/04 06:48:52;;;;;;;68.70;31.15;;;;;;;4.32;74.84;100793.75;3127556;28;20049;-68
2023/01/04 06:50:24;;;;;;;69.47;32.30;;;;;;;4.40;74.72;100796.28;3132860;28;20052;-65
2023/01/04 06:51:55;;;;;;;72.13;31.98;;;;;;;4.49;74.61;100804.84;3133118;28;20143;-68
2023/01/04 06:53:26;;;;;;;77.07;31.52;;;;;;;4.57;74.50;100804.81;3132872;28;20095;-69
2023/01/04 06:54:58;;;;;;;74.18;31.30;;;;;;;4.70;74.26;100803.91;3132774;28;20068;-68
2023/01/04 06:56:32;;;;;;;75.00;32.38;;;;;;;4.82;74.28;100808.13;3132354;28;20049;-67
2023/01/04 06:58:04;;;;;;;71.80;31.92;;;;;;;4.93;74.15;100796.00;3132827;28;20178;-66
2023/01/04 06:59:36;;;;;;;69.97;32.30;;;;;;;5.12;74.18;100807.09;3132569;28;20060;-66
2023/01/04 07:01:08;;;;;;;71.65;31.92;;;;;;;5.28;74.06;100804.41;3126695;28;20049;-67
2023/01/04 07:02:40;;;;;;;70.25;32.67;;;;;;;5.44;73.96;100800.81;3129457;28;20057;-70
2023/01/04 07:04:12;;;;;;;74.10;31.70;;;;;;;5.59;73.53;100799.81;3123455;28;20048;-70
2023/01/04 07:05:44;;;;;;;78.50;33.10;;;;;;;5.81;73.20;100798.78;3132440;28;20183;-65
2023/01/04 07:07:16;;;;;;;81.68;32.22;;;;;;;5.98;72.95;100798.66;3132449;28;20387;-65
2023/01/04 07:08:47;;;;;;;68.07;30.35;;;;;;;6.19;72.70;100791.53;3132206;28;20498;-64
2023/01/04 07:10:19;;;;;;;68.18;29.38;;;;;;;6.38;72.21;100798.19;3129256;28;20049;-64
2023/01/04 07:11:53;;;;;;;58.25;28.67;;;;;;;6.60;71.90;100797.06;3124617;28;20071;-64
2023/01/04 07:13:25;;;;;;;59.63;26.85;;;;;;;6.42;71.11;100730.03;3132524;28;20529;-63
2023/01/04 07:14:57;;;;;;;58.03;26.98;;;;;;;7.01;70.99;100789.56;3132883;28;20056;-63
2023/01/04 07:16:28;;;;;;;74.32;28.33;;;;;;;7.26;70.91;100792.66;3123143;28;20872;-62
2023/01/04 07:18:00;;;;;;;60.95;28.63;;;;;;;7.55;70.22;100786.16;3128507;28;20046;-63
2023/01/04 07:19:32;;;;;;;68.90;28.95;;;;;;;7.87;69.89;100794.22;3132106;28;20064;-62
2023/01/04 07:21:04;;;;;;;61.03;29.83;;;;;;;8.17;69.23;100791.94;3132642;28;20053;-62
2023/01/04 07:22:36;;;;;;;60.88;29.38;;;;;;;8.43;68.43;100788.88;3132204;28;20049;-65
2023/01/04 07:24:08;;;;;;;70.13;30.00;;;;;;;8.78;67.23;100795.03;3108057;28;20050;-61
2023/01/04 07:25:40;;;;;;;64.45;28.73;;;;;;;9.09;66.38;100792.63;3130272;28;20087;-63
2023/01/04 07:27:13;;;;;;;64.63;29.38;;;;;;;9.41;65.05;100793.59;3132311;28;20045;-63
2023/01/04 07:30:34;;;;;;;65.00;27.75;;;;;;;10.06;63.46;100785.84;3120806;28;20061;-64
2023/01/04 07:32:06;;;;;;;53.63;25.52;;;;;;;10.32;62.31;100789.47;3129108;28;20064;-65
2023/01/04 07:33:38;;;;;;;52.72;26.63;;;;;;;10.58;61.41;100784.38;3119557;28;20045;-65
2023/01/04 07:35:10;;;;;;;57.65;25.63;;;;;;;10.87;60.58;100793.09;3126651;28;20046;-65
2023/01/04 07:36:42;;;;;;;58.95;25.33;;;;;;;11.11;59.58;100789.72;3131676;28;20545;-64
2023/01/04 07:38:14;;;;;;;55.97;24.88;;;;;;;11.37;59.20;100801.06;3132043;28;20082;-67
2023/01/04 07:39:47;;;;;;;54.05;23.25;;;;;;;11.54;58.25;100793.53;3132370;28;20506;-62
2023/01/04 07:41:19;;;;;;;56.85;24.95;;;;;;;11.87;57.89;100798.56;3131580;28;20445;-63
2023/01/04 07:42:56;;;;;;;54.67;25.20;;;;;;;12.13;57.33;100808.09;3131853;28;20130;-62
2023/01/04 07:44:28;;;;;;;51.15;23.48;;;;;;;12.37;56.62;100795.06;3124231;28;20131;-64
2023/01/04 07:46:00;;;;;;;57.83;24.40;;;;;;;12.61;56.15;100798.53;3132067;28;20118;-66
2023/01/04 07:47:32;;;;;;;53.80;23.90;;;;;;;12.83;55.38;100788.09;3127409;28;20076;-67
2023/01/04 07:49:05;;;;;;;52.92;24.17;;;;;;;13.10;54.76;100794.88;3132013;28;20103;-64
2023/01/04 07:50:37;;;;;;;46.10;24.95;;;;;;;12.68;54.15;100682.38;3132006;28;20441;-66
2023/01/04 07:52:09;;;;;;;56.35;26.05;;;;;;;13.60;53.57;100793.72;3132335;28;20387;-65
2023/01/04 07:53:41;;;;;;;48.33;22.08;;;;;;;13.88;52.92;100794.28;3132231;28;20045;-67
2023/01/04 07:55:13;;;;;;;47.60;23.65;;;;;;;14.09;52.18;100786.41;3131793;28;20049;-66
2023/01/04 07:56:46;;;;;;;52.88;23.17;;;;;;;14.32;51.65;100790.63;3127440;28;20057;-65
2023/01/04 07:58:19;;;;;;;46.35;23.17;;;;;;;14.51;51.22;100788.88;3121506;28;20104;-67
2023/01/04 07:59:51;;;;;;;52.05;22.55;;;;;;;14.77;50.69;100787.69;3130089;28;20049;-68
2023/01/04 08:01:23;;;;;;;38.58;21.85;;;;;;;14.95;50.00;100787.75;3124340;28;20119;-68